| time (UTC) | temp C | wind direction | speed KPH | gust KPH | rain 1hr cm | rain 24hr cm | rain mn cm | humidity % | barometer mb |
| 20260906131457 | 28 | 220 | 4.8 | 9.7 | 0.00 | 0.00 | 0.00 | 70 | 1013.7 |
| 20260906130953 | 28 | 289 | 8.0 | 12.9 | 0.00 | 0.00 | 0.00 | 69 | 1013.4 |
| 20260906130451 | 28 | 210 | 3.2 | 3.2 | 0.00 | 0.00 | 0.00 | 72 | 1013.4 |
| 20260906125946 | 28 | 279 | 4.8 | 8.0 | 0.00 | 0.00 | 0.00 | 71 | 1013.4 |
| 20260906125444 | 28 | 299 | 6.4 | 9.7 | 0.00 | 0.00 | 0.00 | 71 | 1013.4 |
| 20260906124943 | 29 | 267 | 4.8 | 4.8 | 0.00 | 0.00 | 0.00 | 70 | 1013.3 |
| 20260906124439 | 29 | 303 | 11.3 | 14.5 | 0.00 | 0.00 | 0.00 | 69 | 1013.3 |
| 20260906123939 | 29 | 285 | 9.7 | 14.5 | 0.00 | 0.00 | 0.00 | 69 | 1013.2 |
| 20260906123433 | 29 | 244 | 4.8 | 4.8 | 0.00 | 0.00 | 0.00 | 68 | 1013.4 |
| 20260906122933 | 28 | 323 | 6.4 | 8.0 | 0.00 | 0.00 | 0.00 | 69 | 1013.2 |
| 20260906122428 | 29 | 18 | 1.6 | 3.2 | 0.00 | 0.00 | 0.00 | 68 | 1013.2 |
| 20260906121925 | 29 | 307 | 4.8 | 8.0 | 0.00 | 0.00 | 0.00 | 70 | 1013.2 |
| 20260906121420 | 30 | 170 | 1.6 | 1.6 | 0.00 | 0.00 | 0.00 | 68 | 1013.4 |
| 20260906120917 | 30 | 312 | 11.3 | 14.5 | 0.00 | 0.00 | 0.00 | 66 | 1013.3 |
| 20260906120412 | 30 | 334 | 3.2 | 3.2 | 0.00 | 0.00 | 0.00 | 69 | 1013.4 |
| 20260906115908 | 30 | 143 | 3.2 | 3.2 | 0.00 | 0.00 | 0.00 | 68 | 1013.5 |
| 20260906115403 | 31 | 281 | 9.7 | 12.9 | 0.00 | 0.00 | 0.00 | 64 | 1013.3 |
| 20260906114903 | 30 | 263 | 3.2 | 4.8 | 0.00 | 0.00 | 0.00 | 65 | 1013.5 |
| 20260906114358 | 31 | 12 | 6.4 | 9.7 | 0.00 | 0.00 | 0.00 | 65 | 1013.3 |
| 20260906113854 | 30 | 280 | 4.8 | 8.0 | 0.00 | 0.00 | 0.00 | 65 | 1013.1 |
| 20260906113352 | 31 | 224 | 6.4 | 9.7 | 0.00 | 0.00 | 0.00 | 65 | 1013.4 |
| 20260906112848 | 31 | 213 | 16.1 | 22.5 | 0.00 | 0.00 | 0.00 | 63 | 1013.3 |
| 20260906112344 | 30 | 200 | 3.2 | 8.0 | 0.00 | 0.00 | 0.00 | 65 | 1013.1 |
| 20260906111843 | 31 | 201 | 8.0 | 12.9 | 0.00 | 0.00 | 0.00 | 64 | 1013.3 |
| 20260906111337 | 31 | 249 | 9.7 | 17.7 | 0.00 | 0.00 | 0.00 | 63 | 1013.4 |
| 20260906110827 | 30 | 284 | 6.4 | 8.0 | 0.00 | 0.00 | 0.00 | 66 | 1013.5 |
| 20260906110323 | 30 | 232 | 3.2 | 4.8 | 0.00 | 0.00 | 0.00 | 66 | 1013.4 |
| 20260906105822 | 30 | 150 | 3.2 | 4.8 | 0.00 | 0.00 | 0.00 | 65 | 1013.4 |
| 20260906105318 | 30 | 158 | 4.8 | 8.0 | 0.00 | 0.00 | 0.00 | 66 | 1013.4 |
| 20260906104813 | 30 | 205 | 4.8 | 8.0 | 0.00 | 0.00 | 0.00 | 65 | 1013.6 |
| 20260906104311 | 31 | 272 | 11.3 | 14.5 | 0.00 | 0.00 | 0.00 | 64 | 1013.4 |
| 20260906103809 | 31 | 164 | 4.8 | 8.0 | 0.00 | 0.00 | 0.00 | 64 | 1013.3 |
| 20260906103303 | 31 | 163 | 8.0 | 11.3 | 0.00 | 0.00 | 0.00 | 63 | 1013.5 |
| 20260906102759 | 31 | 144 | 8.0 | 12.9 | 0.00 | 0.00 | 0.00 | 65 | 1013.7 |
| 20260906102258 | 30 | 187 | 4.8 | 8.0 | 0.00 | 0.00 | 0.00 | 64 | 1013.6 |
| 20260906101753 | 31 | 308 | 9.7 | 12.9 | 0.00 | 0.00 | 0.00 | 63 | 1013.7 |
| 20260906101248 | 31 | 269 | 8.0 | 14.5 | 0.00 | 0.00 | 0.00 | 63 | 1013.6 |
| 20260906100744 | 30 | 156 | 4.8 | 4.8 | 0.00 | 0.00 | 0.00 | 65 | 1013.7 |
| 20260906100243 | 30 | 254 | 6.4 | 8.0 | 0.00 | 0.00 | 0.00 | 65 | 1013.6 |
| 20260906095739 | 30 | 272 | 4.8 | 12.9 | 0.00 | 0.00 | 0.00 | 62 | 1013.7 |
| 20260906095234 | 31 | 287 | 8.0 | 12.9 | 0.00 | 0.00 | 0.00 | 63 | 1013.5 |
| 20260906094733 | 31 | 300 | 9.7 | 14.5 | 0.00 | 0.00 | 0.00 | 62 | 1013.3 |
| 20260906094228 | 31 | 215 | 9.7 | 14.5 | 0.00 | 0.00 | 0.00 | 62 | 1013.4 |
| 20260906093724 | 30 | 166 | 0.0 | 1.6 | 0.00 | 0.00 | 0.00 | 62 | 1013.6 |
| 20260906093214 | 31 | 264 | 6.4 | 9.7 | 0.00 | 0.00 | 0.00 | 61 | 1013.5 |
| 20260906092709 | 31 | 299 | 6.4 | 11.3 | 0.00 | 0.00 | 0.00 | 60 | 1013.7 |
| 20260906092209 | 31 | 222 | 11.3 | 14.5 | 0.00 | 0.00 | 0.00 | 58 | 1013.5 |
| 20260906091705 | 31 | 91 | 1.6 | 3.2 | 0.00 | 0.00 | 0.00 | 59 | 1013.4 |
| 20260906091201 | 31 | 199 | 8.0 | 12.9 | 0.00 | 0.00 | 0.00 | 61 | 1013.5 |
| 20260906090657 | 31 | 155 | 3.2 | 4.8 | 0.00 | 0.00 | 0.00 | 58 | 1013.7 |
| 20260906090155 | 31 | 167 | 1.6 | 3.2 | 0.00 | 0.00 | 0.00 | 59 | 1013.8 |
| 20260906085655 | 30 | 325 | 1.6 | 3.2 | 0.00 | 0.00 | 0.00 | 61 | 1013.9 |
| 20260906085149 | 31 | 317 | 8.0 | 9.7 | 0.00 | 0.00 | 0.00 | 61 | 1013.8 |
| 20260906084644 | 31 | 162 | 3.2 | 4.8 | 0.00 | 0.00 | 0.00 | 60 | 1013.5 |
| 20260906084143 | 31 | 171 | 6.4 | 9.7 | 0.00 | 0.00 | 0.00 | 60 | 1013.6 |
| 20260906083638 | 31 | 163 | 1.6 | 3.2 | 0.00 | 0.00 | 0.00 | 62 | 1013.8 |
| 20260906083133 | 30 | 146 | 4.8 | 8.0 | 0.00 | 0.00 | 0.00 | 62 | 1013.7 |
| 20260906082628 | 30 | 322 | 3.2 | 3.2 | 0.00 | 0.00 | 0.00 | 61 | 1013.7 |
| 20260906082124 | 30 | 178 | 9.7 | 16.1 | 0.00 | 0.00 | 0.00 | 62 | 1013.6 |
| 20260906081620 | 30 | 123 | 3.2 | 4.8 | 0.00 | 0.00 | 0.00 | 64 | 1013.7 |
| 20260906081115 | 30 | 154 | 4.8 | 8.0 | 0.00 | 0.00 | 0.00 | 63 | 1013.6 |
| 20260906080612 | 30 | 180 | 3.2 | 8.0 | 0.00 | 0.00 | 0.00 | 63 | 1013.9 |
| 20260906080108 | 30 | 162 | 8.0 | 11.3 | 0.00 | 0.00 | 0.00 | 68 | 1014.0 |
| 20260906075607 | 30 | 204 | 1.6 | 8.0 | 0.00 | 0.00 | 0.00 | 66 | 1014.1 |
| 20260906075101 | 29 | 151 | 1.6 | 1.6 | 0.00 | 0.00 | 0.00 | 68 | 1013.9 |
| 20260906074556 | 30 | 171 | 3.2 | 3.2 | 0.00 | 0.00 | 0.00 | 67 | 1014.1 |
| 20260906074049 | 30 | 273 | 6.4 | 9.7 | 0.00 | 0.00 | 0.00 | 65 | 1014.1 |
| 20260906073544 | 29 | 177 | 3.2 | 3.2 | 0.00 | 0.00 | 0.00 | 67 | 1014.0 |
| 20260906073040 | 29 | 151 | 6.4 | 8.0 | 0.00 | 0.00 | 0.00 | 65 | 1014.1 |
| 20260906072535 | 30 | 290 | 6.4 | 11.3 | 0.00 | 0.00 | 0.00 | 64 | 1014.3 |
| 20260906072031 | 29 | 169 | 3.2 | 4.8 | 0.00 | 0.00 | 0.00 | 65 | 1014.2 |
| 20260906071527 | 28 | 4 | 6.4 | 11.3 | 0.00 | 0.00 | 0.00 | 66 | 1014.2 |
| 20260906071022 | 28 | 223 | 8.0 | 9.7 | 0.00 | 0.00 | 0.00 | 67 | 1014.2 |
| 20260906070519 | 28 | 178 | 4.8 | 4.8 | 0.00 | 0.00 | 0.00 | 67 | 1014.2 |
| 20260906070014 | 28 | 223 | 4.8 | 8.0 | 0.00 | 0.00 | 0.00 | 70 | 1014.2 |
| 20260906065513 | 28 | 280 | 3.2 | 4.8 | 0.00 | 0.00 | 0.00 | 70 | 1014.3 |
| 20260906065009 | 27 | 184 | 3.2 | 4.8 | 0.00 | 0.00 | 0.00 | 74 | 1014.2 |
| 20260906064505 | 27 | 180 | 4.8 | 8.0 | 0.00 | 0.00 | 0.00 | 74 | 1014.1 |
| 20260906064000 | 27 | 328 | 6.4 | 11.3 | 0.00 | 0.00 | 0.00 | 74 | 1014.5 |
| 20260906063455 | 27 | 324 | 4.8 | 8.0 | 0.00 | 0.00 | 0.00 | 75 | 1014.3 |
| 20260906062949 | 27 | 263 | 3.2 | 3.2 | 0.00 | 0.00 | 0.00 | 75 | 1014.1 |
| 20260906062445 | 26 | 152 | 0.0 | 0.0 | 0.00 | 0.00 | 0.00 | 77 | 1014.3 |
| 20260906061940 | 26 | 163 | 1.6 | 1.6 | 0.00 | 0.00 | 0.00 | 77 | 1014.3 |
| 20260906061436 | 26 | 161 | 1.6 | 3.2 | 0.00 | 0.00 | 0.00 | 77 | 1014.2 |
| 20260906060930 | 26 | 196 | 4.8 | 8.0 | 0.00 | 0.00 | 0.00 | 77 | 1014.3 |
| 20260906060427 | 26 | 296 | 4.8 | 4.8 | 0.00 | 0.00 | 0.00 | 77 | 1014.3 |
| 20260906055923 | 26 | 172 | 4.8 | 4.8 | 0.00 | 0.00 | 0.00 | 79 | 1014.1 |
| 20260906055419 | 26 | 217 | 9.7 | 12.9 | 0.00 | 0.00 | 0.00 | 79 | 1014.0 |
| 20260906054914 | 26 | 179 | 3.2 | 3.2 | 0.00 | 0.00 | 0.00 | 80 | 1014.3 |
| 20260906054409 | 26 | 191 | 4.8 | 8.0 | 0.00 | 0.00 | 0.00 | 80 | 1013.9 |
| 20260906053905 | 26 | 291 | 3.2 | 4.8 | 0.00 | 0.00 | 0.00 | 81 | 1013.8 |
| 20260906053401 | 26 | 283 | 4.8 | 8.0 | 0.00 | 0.00 | 0.00 | 82 | 1013.7 |
| 20260906052856 | 26 | 91 | 1.6 | 3.2 | 0.00 | 0.00 | 0.00 | 82 | 1013.7 |
| 20260906052352 | 25 | 144 | 1.6 | 1.6 | 0.00 | 0.00 | 0.00 | 83 | 1013.6 |
| 20260906051849 | 25 | 244 | 3.2 | 3.2 | 0.00 | 0.00 | 0.00 | 83 | 1013.9 |
| 20260906051348 | 25 | 153 | 3.2 | 4.8 | 0.00 | 0.00 | 0.00 | 84 | 1013.9 |
| 20260906050845 | 25 | 162 | 1.6 | 4.8 | 0.00 | 0.00 | 0.00 | 85 | 1013.7 |
| 20260906050339 | 25 | 163 | 1.6 | 1.6 | 0.00 | 0.00 | 0.00 | 86 | 1013.6 |
| 20260906045838 | 25 | 236 | 1.6 | 1.6 | 0.00 | 0.00 | 0.00 | 86 | 1013.7 |
| 20260906045332 | 25 | 158 | 0.0 | 1.6 | 0.00 | 0.00 | 0.00 | 87 | 1013.8 |
| 20260906044829 | 25 | 176 | 1.6 | 1.6 | 0.00 | 0.00 | 0.00 | 87 | 1013.7 |
| 20260906044329 | 24 | 288 | 3.2 | 3.2 | 0.00 | 0.00 | 0.00 | 88 | 1013.4 |
| 20260906043826 | 24 | 199 | 0.0 | 0.0 | 0.00 | 0.00 | 0.00 | 88 | 1013.6 |
| 20260906043321 | 24 | 164 | 0.0 | 1.6 | 0.00 | 0.00 | 0.00 | 88 | 1013.7 |
| 20260906042820 | 24 | 152 | 0.0 | 0.0 | 0.00 | 0.00 | 0.00 | 88 | 1013.5 |
| 20260906042320 | 24 | 185 | 0.0 | 1.6 | 0.00 | 0.00 | 0.00 | 88 | 1013.5 |
| 20260906041815 | 24 | 155 | 0.0 | 1.6 | 0.00 | 0.00 | 0.00 | 88 | 1013.4 |
| 20260906041310 | 24 | 153 | 0.0 | 0.0 | 0.00 | 0.00 | 0.00 | 88 | 1013.2 |
| 20260906040805 | 24 | 148 | 1.6 | 1.6 | 0.00 | 0.00 | 0.00 | 88 | 1013.2 |
| 20260906040301 | 24 | 142 | 0.0 | 0.0 | 0.00 | 0.00 | 0.00 | 88 | 1013.4 |
| 20260906035756 | 24 | 145 | 0.0 | 1.6 | 0.00 | 0.00 | 0.00 | 89 | 1013.2 |
| 20260906035252 | 24 | 288 | 1.6 | 3.2 | 0.00 | 0.00 | 0.00 | 89 | 1013.3 |
| 20260906034752 | 23 | 160 | 1.6 | 1.6 | 0.00 | 0.00 | 0.00 | 89 | 1013.2 |
| 20260906034251 | 23 | 130 | 1.6 | 1.6 | 0.00 | 0.00 | 0.00 | 89 | 1013.3 |
| 20260906033748 | 23 | 100 | 0.0 | 1.6 | 0.00 | 0.00 | 0.00 | 89 | 1013.3 |
| 20260906033247 | 23 | 145 | 0.0 | 0.0 | 0.00 | 0.00 | 0.00 | 90 | 1013.2 |
| 20260906032743 | 23 | 134 | 0.0 | 1.6 | 0.00 | 0.00 | 0.00 | 90 | 1013.4 |
| 20260906032243 | 23 | 184 | 1.6 | 1.6 | 0.00 | 0.00 | 0.00 | 90 | 1013.1 |
| 20260906031738 | 23 | 253 | 1.6 | 1.6 | 0.00 | 0.00 | 0.00 | 90 | 1013.1 |
| 20260906031234 | 23 | 165 | 1.6 | 1.6 | 0.00 | 0.00 | 0.00 | 90 | 1012.8 |
| 20260906030729 | 23 | 133 | 0.0 | 0.0 | 0.00 | 0.00 | 0.00 | 90 | 1013.1 |
| 20260906030224 | 23 | 151 | 1.6 | 3.2 | 0.00 | 0.00 | 0.00 | 89 | 1013.1 |
| 20260906025723 | 23 | 202 | 1.6 | 3.2 | 0.00 | 0.00 | 0.00 | 89 | 1012.9 |
| 20260906025218 | 23 | 264 | 3.2 | 4.8 | 0.00 | 0.00 | 0.00 | 89 | 1013.2 |
| 20260906024717 | 23 | 272 | 1.6 | 1.6 | 0.00 | 0.00 | 0.00 | 89 | 1012.9 |
| 20260906024216 | 23 | 209 | 3.2 | 3.2 | 0.00 | 0.00 | 0.00 | 89 | 1013.2 |
| 20260906023712 | 23 | 119 | 1.6 | 3.2 | 0.00 | 0.00 | 0.00 | 89 | 1013.1 |
| 20260906023212 | 23 | 194 | 0.0 | 1.6 | 0.00 | 0.00 | 0.00 | 89 | 1013.1 |
| 20260906022707 | 23 | 209 | 1.6 | 3.2 | 0.00 | 0.00 | 0.00 | 89 | 1013.2 |
| 20260906022158 | 23 | 77 | 1.6 | 1.6 | 0.00 | 0.00 | 0.00 | 90 | 1012.9 |
| 20260906021654 | 23 | 260 | 1.6 | 1.6 | 0.00 | 0.00 | 0.00 | 90 | 1013.1 |
| 20260906021152 | 23 | 192 | 1.6 | 1.6 | 0.00 | 0.00 | 0.00 | 90 | 1013.3 |
| 20260906020647 | 23 | 196 | 0.0 | 1.6 | 0.00 | 0.00 | 0.00 | 90 | 1013.1 |
| 20260906020142 | 23 | 251 | 3.2 | 3.2 | 0.00 | 0.00 | 0.00 | 90 | 1013.1 |
| 20260906015636 | 23 | 135 | 1.6 | 3.2 | 0.00 | 0.00 | 0.00 | 90 | 1013.1 |
| 20260906015134 | 23 | 167 | 1.6 | 1.6 | 0.00 | 0.00 | 0.00 | 90 | 1012.9 |
| 20260906014629 | 23 | 353 | 1.6 | 1.6 | 0.00 | 0.00 | 0.00 | 90 | 1012.8 |
| 20260906014125 | 23 | 227 | 1.6 | 3.2 | 0.00 | 0.00 | 0.00 | 90 | 1012.9 |
| 20260906013620 | 23 | 248 | 3.2 | 3.2 | 0.00 | 0.00 | 0.00 | 90 | 1012.8 |
| 20260906013116 | 23 | 107 | 1.6 | 3.2 | 0.00 | 0.00 | 0.00 | 90 | 1013.1 |
| 20260906012610 | 24 | 264 | 3.2 | 3.2 | 0.00 | 0.00 | 0.00 | 89 | 1012.9 |
| 20260906012104 | 24 | 233 | 1.6 | 1.6 | 0.00 | 0.00 | 0.00 | 89 | 1012.8 |
| 20260906011600 | 24 | 299 | 3.2 | 3.2 | 0.00 | 0.00 | 0.00 | 89 | 1012.8 |
| 20260906011055 | 24 | 147 | 3.2 | 4.8 | 0.00 | 0.00 | 0.00 | 89 | 1012.8 |
| 20260906010550 | 24 | 213 | 3.2 | 4.8 | 0.00 | 0.00 | 0.00 | 89 | 1012.7 |
| 20260906010047 | 24 | 324 | 1.6 | 3.2 | 0.00 | 0.00 | 0.00 | 89 | 1012.7 |
| 20260906005546 | 24 | 244 | 0.0 | 1.6 | 0.00 | 0.00 | 0.00 | 89 | 1012.8 |
| 20260906005045 | 24 | 159 | 1.6 | 1.6 | 0.00 | 0.00 | 0.00 | 88 | 1012.8 |
| 20260906004544 | 24 | 295 | 1.6 | 3.2 | 0.00 | 0.00 | 0.00 | 88 | 1012.7 |
| 20260906004039 | 24 | 149 | 0.0 | 0.0 | 0.00 | 0.00 | 0.00 | 88 | 1013.2 |
| 20260906003535 | 24 | 265 | 3.2 | 3.2 | 0.00 | 0.00 | 0.00 | 88 | 1012.8 |
| 20260906003031 | 24 | 144 | 0.0 | 1.6 | 0.00 | 0.00 | 0.00 | 88 | 1013.2 |
| 20260906002530 | 24 | 269 | 3.2 | 3.2 | 0.00 | 0.00 | 0.00 | 88 | 1013.2 |
| 20260906002025 | 24 | 152 | 1.6 | 1.6 | 0.00 | 0.00 | 0.00 | 87 | 1013.1 |
| 20260906001521 | 24 | 229 | 1.6 | 3.2 | 0.00 | 0.00 | 0.00 | 87 | 1013.3 |
| 20260906001021 | 24 | 148 | 1.6 | 1.6 | 0.00 | 0.00 | 0.00 | 87 | 1012.9 |
| 20260906000517 | 24 | 130 | 1.6 | 3.2 | 0.00 | 0.00 | 0.00 | 88 | 1013.2 |
| 20260906000012 | 24 | 214 | 3.2 | 3.2 | 0.00 | 0.00 | 0.00 | 88 | 1012.9 |
| 20260905235506 | 24 | 250 | 3.2 | 3.2 | 0.00 | 0.00 | 0.00 | 88 | 1013.4 |
| 20260905235001 | 24 | 131 | 1.6 | 3.2 | 0.00 | 0.00 | 0.00 | 88 | 1013.3 |
| 20260905234456 | 24 | 308 | 1.6 | 1.6 | 0.00 | 0.00 | 0.00 | 88 | 1013.1 |
| 20260905233950 | 24 | 267 | 4.8 | 4.8 | 0.00 | 0.00 | 0.00 | 88 | 1013.3 |
| 20260905233446 | 24 | 155 | 3.2 | 3.2 | 0.00 | 0.00 | 0.00 | 88 | 1013.3 |
| 20260905232944 | 24 | 276 | 1.6 | 3.2 | 0.00 | 0.00 | 0.00 | 88 | 1013.3 |
| 20260905232441 | 24 | 280 | 1.6 | 3.2 | 0.00 | 0.00 | 0.00 | 88 | 1012.8 |
| 20260905231936 | 24 | 325 | 4.8 | 8.0 | 0.00 | 0.00 | 0.00 | 88 | 1013.1 |
| 20260905231432 | 24 | 126 | 1.6 | 1.6 | 0.00 | 0.00 | 0.00 | 88 | 1013.3 |
| 20260905230923 | 24 | 233 | 3.2 | 3.2 | 0.00 | 0.00 | 0.00 | 88 | 1013.1 |
| 20260905230420 | 24 | 270 | 3.2 | 4.8 | 0.00 | 0.00 | 0.00 | 88 | 1013.3 |
| 20260905225919 | 24 | 125 | 1.6 | 3.2 | 0.00 | 0.00 | 0.00 | 88 | 1013.1 |
| 20260905225415 | 24 | 311 | 3.2 | 3.2 | 0.00 | 0.00 | 0.00 | 88 | 1012.9 |
| 20260905224909 | 24 | 225 | 1.6 | 3.2 | 0.00 | 0.00 | 0.00 | 88 | 1013.1 |
| 20260905224406 | 24 | 274 | 3.2 | 3.2 | 0.00 | 0.00 | 0.00 | 88 | 1013.3 |
| 20260905223859 | 24 | 156 | 1.6 | 3.2 | 0.00 | 0.00 | 0.00 | 88 | 1013.1 |
| 20260905223357 | 24 | 296 | 1.6 | 1.6 | 0.00 | 0.00 | 0.00 | 88 | 1013.2 |
| 20260905222852 | 24 | 180 | 1.6 | 1.6 | 0.00 | 0.00 | 0.00 | 88 | 1013.4 |
| 20260905222350 | 24 | 310 | 4.8 | 4.8 | 0.00 | 0.00 | 0.00 | 88 | 1013.4 |
| 20260905221841 | 24 | 135 | 3.2 | 3.2 | 0.00 | 0.00 | 0.00 | 88 | 1013.4 |
| 20260905221338 | 24 | 337 | 1.6 | 3.2 | 0.00 | 0.00 | 0.00 | 88 | 1013.3 |
| 20260905220833 | 24 | 301 | 1.6 | 3.2 | 0.00 | 0.00 | 0.00 | 88 | 1013.3 |
| 20260905220329 | 24 | 150 | 1.6 | 1.6 | 0.00 | 0.00 | 0.00 | 88 | 1013.5 |
| 20260905215828 | 24 | 158 | 4.8 | 4.8 | 0.00 | 0.00 | 0.00 | 88 | 1013.5 |
| 20260905215324 | 24 | 343 | 1.6 | 3.2 | 0.00 | 0.00 | 0.00 | 88 | 1013.4 |
| 20260905214821 | 25 | 341 | 1.6 | 3.2 | 0.00 | 0.00 | 0.00 | 88 | 1013.4 |
| 20260905214315 | 25 | 303 | 4.8 | 4.8 | 0.00 | 0.00 | 0.00 | 88 | 1013.7 |
| 20260905213810 | 25 | 250 | 1.6 | 1.6 | 0.00 | 0.00 | 0.00 | 88 | 1013.7 |
| 20260905213307 | 25 | 152 | 3.2 | 4.8 | 0.00 | 0.00 | 0.00 | 88 | 1013.7 |
| 20260905212806 | 25 | 216 | 3.2 | 3.2 | 0.00 | 0.00 | 0.00 | 88 | 1013.6 |
| 20260905212301 | 25 | 21 | 1.6 | 3.2 | 0.00 | 0.00 | 0.00 | 88 | 1013.7 |
| 20260905211801 | 25 | 284 | 3.2 | 8.0 | 0.00 | 0.00 | 0.00 | 88 | 1013.9 |
| 20260905211256 | 25 | 183 | 1.6 | 3.2 | 0.00 | 0.00 | 0.00 | 88 | 1013.9 |
| 20260905210753 | 25 | 359 | 3.2 | 4.8 | 0.00 | 0.00 | 0.00 | 88 | 1013.9 |
| 20260905210253 | 25 | 258 | 4.8 | 4.8 | 0.00 | 0.00 | 0.00 | 88 | 1013.9 |
| 20260905205751 | 25 | 304 | 1.6 | 3.2 | 0.00 | 0.00 | 0.00 | 88 | 1013.8 |
| 20260905205246 | 25 | 184 | 3.2 | 4.8 | 0.00 | 0.00 | 0.00 | 88 | 1013.9 |
| 20260905204746 | 25 | 255 | 3.2 | 4.8 | 0.00 | 0.00 | 0.00 | 88 | 1013.7 |
| 20260905204242 | 25 | 319 | 4.8 | 4.8 | 0.00 | 0.00 | 0.00 | 88 | 1013.8 |
| 20260905203741 | 25 | 264 | 3.2 | 3.2 | 0.00 | 0.00 | 0.00 | 88 | 1013.9 |
| 20260905203237 | 25 | 240 | 1.6 | 1.6 | 0.00 | 0.00 | 0.00 | 88 | 1014.0 |
| 20260905202732 | 25 | 159 | 1.6 | 1.6 | 0.00 | 0.00 | 0.00 | 87 | 1014.1 |
| 20260905202227 | 25 | 273 | 4.8 | 4.8 | 0.00 | 0.00 | 0.00 | 87 | 1014.0 |
| 20260905201722 | 25 | 283 | 3.2 | 3.2 | 0.00 | 0.00 | 0.00 | 87 | 1013.9 |
| 20260905201217 | 25 | 159 | 0.0 | 1.6 | 0.00 | 0.00 | 0.00 | 87 | 1014.0 |
| 20260905200712 | 25 | 156 | 0.0 | 0.0 | 0.00 | 0.00 | 0.00 | 87 | 1013.9 |
| 20260905200208 | 25 | 151 | 0.0 | 1.6 | 0.00 | 0.00 | 0.00 | 87 | 1014.2 |
| 20260905195706 | 25 | 257 | 1.6 | 1.6 | 0.00 | 0.00 | 0.00 | 87 | 1013.9 |
| 20260905195201 | 25 | 235 | 0.0 | 1.6 | 0.00 | 0.00 | 0.00 | 87 | 1014.0 |
| 20260905194656 | 25 | 281 | 1.6 | 3.2 | 0.00 | 0.00 | 0.00 | 87 | 1014.0 |
| 20260905194155 | 25 | 154 | 1.6 | 1.6 | 0.00 | 0.00 | 0.00 | 87 | 1014.0 |
| 20260905193650 | 25 | 308 | 1.6 | 1.6 | 0.00 | 0.00 | 0.00 | 87 | 1014.0 |
| 20260905193145 | 25 | 143 | 0.0 | 0.0 | 0.00 | 0.00 | 0.00 | 87 | 1013.9 |
| 20260905192640 | 25 | 184 | 1.6 | 1.6 | 0.00 | 0.00 | 0.00 | 87 | 1014.1 |
| 20260905192137 | 25 | 278 | 0.0 | 1.6 | 0.00 | 0.00 | 0.00 | 87 | 1014.0 |
| 20260905191637 | 25 | 176 | 3.2 | 4.8 | 0.00 | 0.00 | 0.00 | 87 | 1014.0 |
| 20260905191134 | 25 | 292 | 3.2 | 3.2 | 0.00 | 0.00 | 0.00 | 86 | 1013.9 |
| 20260905190632 | 25 | 290 | 3.2 | 4.8 | 0.00 | 0.00 | 0.00 | 86 | 1014.1 |
| 20260905190127 | 25 | 257 | 3.2 | 3.2 | 0.00 | 0.00 | 0.00 | 86 | 1014.2 |
| 20260905185625 | 25 | 281 | 1.6 | 1.6 | 0.00 | 0.00 | 0.00 | 87 | 1014.3 |
| 20260905185120 | 25 | 307 | 3.2 | 3.2 | 0.00 | 0.00 | 0.00 | 87 | 1014.3 |
| 20260905184615 | 25 | 289 | 3.2 | 4.8 | 0.00 | 0.00 | 0.00 | 87 | 1013.9 |
| 20260905184114 | 25 | 112 | 0.0 | 1.6 | 0.00 | 0.00 | 0.00 | 87 | 1014.5 |
| 20260905183613 | 25 | 337 | 0.0 | 1.6 | 0.00 | 0.00 | 0.00 | 87 | 1014.2 |
| 20260905183108 | 25 | 94 | 0.0 | 0.0 | 0.00 | 0.00 | 0.00 | 87 | 1014.2 |
| 20260905182607 | 25 | 12 | 1.6 | 1.6 | 0.00 | 0.00 | 0.00 | 87 | 1014.1 |
| 20260905182102 | 25 | 136 | 0.0 | 1.6 | 0.00 | 0.00 | 0.00 | 86 | 1014.1 |
| 20260905181602 | 25 | 134 | 0.0 | 0.0 | 0.00 | 0.00 | 0.00 | 86 | 1013.9 |
| 20260905181101 | 25 | 153 | 0.0 | 0.0 | 0.00 | 0.00 | 0.00 | 86 | 1014.1 |
| 20260905180556 | 25 | 147 | 0.0 | 0.0 | 0.00 | 0.00 | 0.00 | 86 | 1014.0 |
| 20260905180051 | 25 | 154 | 0.0 | 0.0 | 0.00 | 0.00 | 0.00 | 86 | 1014.2 |
| 20260905175550 | 25 | 146 | 1.6 | 1.6 | 0.00 | 0.00 | 0.00 | 85 | 1014.1 |
| 20260905175046 | 25 | 153 | 0.0 | 0.0 | 0.00 | 0.00 | 0.00 | 85 | 1014.1 |
| 20260905174542 | 25 | 154 | 0.0 | 1.6 | 0.00 | 0.00 | 0.00 | 85 | 1014.1 |
| 20260905174037 | 25 | 155 | 0.0 | 0.0 | 0.00 | 0.00 | 0.00 | 85 | 1014.1 |
| 20260905173534 | 25 | 278 | 4.8 | 4.8 | 0.00 | 0.00 | 0.00 | 85 | 1014.2 |
| 20260905173029 | 25 | 346 | 1.6 | 3.2 | 0.00 | 0.00 | 0.00 | 84 | 1014.0 |
| 20260905172527 | 25 | 147 | 0.0 | 0.0 | 0.00 | 0.00 | 0.00 | 84 | 1013.9 |
| 20260905172023 | 25 | 146 | 0.0 | 1.6 | 0.00 | 0.00 | 0.00 | 84 | 1013.8 |
| 20260905171519 | 25 | 333 | 4.8 | 4.8 | 0.00 | 0.00 | 0.00 | 84 | 1014.0 |
| 20260905171015 | 25 | 313 | 6.4 | 8.0 | 0.00 | 0.00 | 0.00 | 84 | 1013.7 |
| 20260905170512 | 25 | 245 | 1.6 | 3.2 | 0.00 | 0.00 | 0.00 | 84 | 1013.7 |
| 20260905170007 | 25 | 317 | 1.6 | 3.2 | 0.00 | 0.00 | 0.00 | 84 | 1013.6 |
| 20260905165502 | 25 | 311 | 1.6 | 3.2 | 0.00 | 0.00 | 0.00 | 83 | 1013.6 |
| 20260905164956 | 25 | 237 | 1.6 | 3.2 | 0.00 | 0.00 | 0.00 | 83 | 1013.3 |
| 20260905164455 | 25 | 327 | 4.8 | 8.0 | 0.00 | 0.00 | 0.00 | 83 | 1013.5 |
| 20260905163950 | 26 | 173 | 3.2 | 3.2 | 0.00 | 0.00 | 0.00 | 82 | 1013.4 |
| 20260905163447 | 26 | 304 | 3.2 | 3.2 | 0.00 | 0.00 | 0.00 | 82 | 1013.3 |
| 20260905162943 | 26 | 181 | 0.0 | 1.6 | 0.00 | 0.00 | 0.00 | 82 | 1013.2 |
| 20260905162438 | 26 | 292 | 3.2 | 4.8 | 0.00 | 0.00 | 0.00 | 82 | 1013.2 |
| 20260905161933 | 26 | 322 | 8.0 | 9.7 | 0.00 | 0.00 | 0.00 | 81 | 1013.3 |
| 20260905161432 | 26 | 303 | 3.2 | 4.8 | 0.00 | 0.00 | 0.00 | 81 | 1013.3 |
| 20260905160930 | 26 | 76 | 1.6 | 3.2 | 0.00 | 0.00 | 0.00 | 80 | 1013.2 |
| 20260905160424 | 26 | 315 | 6.4 | 9.7 | 0.00 | 0.00 | 0.00 | 80 | 1013.1 |
| 20260905155918 | 26 | 223 | 3.2 | 3.2 | 0.00 | 0.00 | 0.00 | 79 | 1013.1 |
| 20260905155418 | 26 | 330 | 4.8 | 9.7 | 0.00 | 0.00 | 0.00 | 79 | 1013.4 |
| 20260905154917 | 26 | 62 | 3.2 | 4.8 | 0.00 | 0.00 | 0.00 | 78 | 1013.3 |
| 20260905154413 | 26 | 323 | 4.8 | 8.0 | 0.00 | 0.00 | 0.00 | 78 | 1013.3 |
| 20260905153908 | 27 | 339 | 1.6 | 1.6 | 0.00 | 0.00 | 0.00 | 78 | 1013.2 |
| 20260905153405 | 27 | 311 | 4.8 | 11.3 | 0.00 | 0.00 | 0.00 | 77 | 1012.9 |
| 20260905152904 | 27 | 323 | 4.8 | 4.8 | 0.00 | 0.00 | 0.00 | 76 | 1013.1 |
| 20260905152403 | 27 | 261 | 6.4 | 9.7 | 0.00 | 0.00 | 0.00 | 75 | 1013.2 |
| 20260905151859 | 27 | 193 | 4.8 | 8.0 | 0.00 | 0.00 | 0.00 | 75 | 1013.2 |
| 20260905151354 | 28 | 344 | 6.4 | 9.7 | 0.00 | 0.00 | 0.00 | 74 | 1012.9 |
| 20260905150849 | 28 | 156 | 4.8 | 9.7 | 0.00 | 0.00 | 0.00 | 73 | 1013.1 |
| 20260905150343 | 28 | 325 | 3.2 | 4.8 | 0.00 | 0.00 | 0.00 | 73 | 1013.2 |
| 20260905145840 | 28 | 203 | 1.6 | 3.2 | 0.00 | 0.00 | 0.00 | 72 | 1013.1 |
| 20260905145334 | 28 | 312 | 6.4 | 12.9 | 0.00 | 0.00 | 0.00 | 71 | 1013.2 |
| 20260905144834 | 28 | 308 | 9.7 | 17.7 | 0.00 | 0.00 | 0.00 | 71 | 1013.1 |
| 20260905144329 | 30 | 323 | 1.6 | 3.2 | 0.00 | 0.00 | 0.00 | 68 | 1012.9 |
| 20260905143828 | 29 | 252 | 4.8 | 9.7 | 0.00 | 0.00 | 0.00 | 69 | 1013.1 |
| 20260905143322 | 30 | 311 | 8.0 | 12.9 | 0.00 | 0.00 | 0.00 | 66 | 1013.2 |
| 20260905142822 | 30 | 143 | 4.8 | 4.8 | 0.00 | 0.00 | 0.00 | 67 | 1013.1 |
| 20260905142316 | 30 | 276 | 4.8 | 8.0 | 0.00 | 0.00 | 0.00 | 66 | 1013.1 |
| 20260905141812 | 29 | 261 | 4.8 | 4.8 | 0.00 | 0.00 | 0.00 | 68 | 1012.9 |
| 20260905141307 | 30 | 323 | 8.0 | 14.5 | 0.00 | 0.00 | 0.00 | 66 | 1012.7 |
| 20260905140803 | 30 | 67 | 6.4 | 8.0 | 0.00 | 0.00 | 0.00 | 66 | 1012.7 |
| 20260905140302 | 30 | 195 | 3.2 | 4.8 | 0.00 | 0.00 | 0.00 | 66 | 1012.7 |
| 20260905135801 | 30 | 267 | 4.8 | 8.0 | 0.00 | 0.00 | 0.00 | 65 | 1012.7 |
| 20260905135257 | 30 | 328 | 3.2 | 4.8 | 0.00 | 0.00 | 0.00 | 66 | 1012.7 |
| 20260905134757 | 30 | 310 | 3.2 | 3.2 | 0.00 | 0.00 | 0.00 | 65 | 1012.9 |
| 20260905134251 | 30 | 350 | 3.2 | 8.0 | 0.00 | 0.00 | 0.00 | 64 | 1012.6 |
| 20260905133745 | 30 | 309 | 8.0 | 11.3 | 0.00 | 0.00 | 0.00 | 65 | 1012.9 |
| 20260905133241 | 30 | 302 | 6.4 | 11.3 | 0.00 | 0.00 | 0.00 | 64 | 1012.8 |
| 20260905132740 | 31 | 298 | 4.8 | 4.8 | 0.00 | 0.00 | 0.00 | 64 | 1012.7 |
| 20260905132236 | 31 | 297 | 4.8 | 8.0 | 0.00 | 0.00 | 0.00 | 64 | 1012.7 |